createdAt,value
2018-06-05T16:12:19.818Z,74.00
2018-06-05T16:17:14.176Z,73.90
2018-06-05T16:19:41.237Z,70.20
2018-06-05T16:22:08.529Z,70.70
2018-06-05T16:24:35.621Z,72.80
2018-06-05T16:27:02.679Z,71.50
2018-06-05T16:29:29.742Z,70.30
2018-06-05T16:31:56.793Z,69.50
2018-06-05T16:34:23.853Z,72.90
2018-06-05T16:36:50.993Z,70.70
2018-06-05T16:39:18.147Z,69.20
2018-06-05T16:41:45.323Z,68.60
2018-06-05T16:44:12.455Z,66.90
2018-06-05T16:46:39.543Z,69.40
2018-06-05T16:49:06.678Z,68.10
2018-06-05T16:51:33.742Z,67.10
2018-06-05T16:54:00.795Z,65.80
2018-06-05T16:56:27.860Z,66.60
2018-06-05T16:58:54.952Z,66.90
2018-06-05T17:01:22.027Z,68.30
2018-06-05T17:03:49.130Z,68.20
2018-06-05T17:06:16.384Z,67.40
2018-06-05T17:08:43.534Z,70.70
2018-06-05T17:11:10.578Z,71.10
2018-06-05T17:13:37.631Z,67.80
2018-06-05T17:16:04.822Z,68.80
2018-06-05T17:18:31.868Z,67.60
2018-06-05T17:20:58.913Z,66.60
2018-06-05T17:23:25.917Z,66.60
2018-06-05T17:25:52.996Z,67.80
2018-06-05T17:28:20.084Z,65.30
2018-06-05T17:30:47.276Z,66.70
2018-06-05T17:33:14.415Z,67.30
2018-06-05T17:35:41.464Z,68.50
2018-06-05T17:38:08.536Z,68.70
2018-06-05T17:40:35.669Z,69.20
2018-06-05T17:43:02.754Z,68.10
2018-06-05T17:45:29.896Z,68.90
2018-06-05T17:47:57.397Z,68.70
2018-06-05T17:50:24.442Z,67.00
2018-06-05T17:52:51.550Z,69.10
2018-06-05T17:55:18.705Z,70.80
2018-06-05T17:57:45.876Z,71.10
2018-06-05T18:00:13.038Z,70.40
2018-06-05T18:02:40.098Z,70.50
2018-06-05T18:05:07.129Z,70.60
2018-06-05T18:07:34.311Z,70.40
2018-06-05T18:10:01.377Z,72.40
2018-06-05T18:12:28.474Z,72.00
2018-06-05T18:14:55.610Z,72.00
2018-06-05T18:17:22.663Z,73.00
2018-06-05T18:19:49.843Z,72.60
2018-06-05T18:22:17.024Z,72.30
2018-06-05T18:24:44.510Z,72.10
2018-06-05T18:27:11.567Z,72.40
2018-06-05T18:29:38.627Z,72.00
2018-06-05T18:32:05.956Z,72.00
2018-06-05T18:34:33.088Z,72.40
2018-06-05T18:37:00.212Z,73.50
2018-06-05T18:39:27.218Z,74.30
2018-06-05T18:41:54.322Z,76.60
2018-06-05T18:44:21.413Z,78.40
2018-06-05T18:46:48.537Z,78.40
2018-06-05T18:49:15.686Z,79.20
2018-06-05T18:51:42.768Z,80.40
2018-06-05T18:54:09.875Z,81.10
2018-06-05T18:56:36.913Z,82.20
2018-06-05T18:59:04.202Z,84.10
2018-06-05T19:01:31.282Z,90.40
2018-06-05T19:03:58.329Z,94.20
2018-06-05T19:06:25.417Z,96.00
2018-06-05T19:08:52.555Z,95.00
2018-06-05T19:11:19.681Z,97.50
2018-06-05T19:13:46.923Z,99.50
2018-06-05T19:16:14.130Z,99.90
2018-06-05T19:18:41.268Z,99.90
2018-06-05T19:21:08.306Z,99.90
2018-06-05T19:23:35.347Z,99.90
2018-06-05T19:26:02.437Z,99.90
2018-06-05T19:28:29.496Z,99.90
2018-06-05T19:30:56.658Z,99.90
2018-06-05T19:33:23.715Z,99.90
2018-06-05T19:35:50.829Z,99.90
2018-06-05T19:38:18.110Z,99.90
2018-06-05T19:40:45.503Z,99.90
2018-06-05T19:43:12.547Z,99.90
2018-06-05T19:45:39.623Z,99.90
2018-06-05T19:48:06.699Z,99.90
2018-06-05T19:50:33.736Z,99.90
2018-06-05T19:53:00.810Z,99.90
2018-06-05T19:55:27.849Z,99.90
2018-06-05T20:00:22.150Z,99.90
